Westminster, Colorado
Current Conditions -  °F | °C
As of 9:04 PM on Sunday 21 Dec 2014 (Local Time) from KBJC Reporting Station
Light Rain Light Rain  
Wind Chill: 36°   Ceiling: 2500
Heat Index: 41°   Visibility: 30mi
Dew Point: 36°   Wind: 8mph
Humidity: 81%   Direction: 310°NW
Pressure: 29.65"   Gusts: NA
Location:  39.86°N, 105.04°W
Report Text: KBJC 220404Z 31007KT 30SM -RA BKN025 BKN040 05/02 A2965
Loading
Personal Weather Stations






























Interactive Weather Map New forecast layout! Learn more

10-Day Weather Forecast

Advertisements
Track Severe Weather on mobile